createdAt,value
2018-05-11T00:01:47.458Z,99.90
2018-05-11T00:04:13.492Z,99.90
2018-05-11T00:06:39.525Z,99.90
2018-05-11T00:09:05.530Z,99.90
2018-05-11T00:11:31.565Z,99.90
2018-05-11T00:13:57.591Z,99.90
2018-05-11T00:16:24.359Z,99.90
2018-05-11T00:18:50.364Z,99.90
2018-05-11T00:21:16.388Z,99.90
2018-05-11T00:23:42.393Z,99.90
2018-05-11T00:26:08.423Z,99.90
2018-05-11T00:28:35.218Z,99.90
2018-05-11T00:31:01.247Z,99.90
2018-05-11T00:33:27.272Z,99.90
2018-05-11T00:35:53.278Z,99.90
2018-05-11T00:38:20.041Z,99.90
2018-05-11T00:40:46.049Z,99.90
2018-05-11T00:43:12.075Z,99.90
2018-05-11T00:45:38.099Z,99.90
2018-05-11T00:48:04.112Z,99.90
2018-05-11T00:50:30.130Z,99.90
2018-05-11T00:52:56.149Z,99.90
2018-05-11T00:55:34.590Z,99.90
2018-05-11T00:58:00.617Z,99.90
2018-05-11T01:00:27.377Z,99.90
2018-05-11T01:02:53.418Z,99.90
2018-05-11T01:05:19.433Z,99.90
2018-05-11T01:07:46.185Z,99.90
2018-05-11T01:10:12.948Z,99.90
2018-05-11T01:12:39.722Z,99.90
2018-05-11T01:15:05.762Z,99.90
2018-05-11T01:17:31.804Z,99.90
2018-05-11T01:19:57.836Z,99.90
2018-05-11T01:22:23.854Z,99.90
2018-05-11T01:24:49.882Z,99.90
2018-05-11T01:27:15.940Z,99.90
2018-05-11T01:29:41.973Z,99.90
2018-05-11T01:32:07.997Z,99.90
2018-05-11T01:34:34.019Z,99.90
2018-05-11T01:37:00.781Z,99.90
2018-05-11T01:39:26.811Z,99.90
2018-05-11T01:41:53.734Z,99.90
2018-05-11T01:44:19.777Z,99.90
2018-05-11T01:46:45.813Z,99.90
2018-05-11T01:49:12.593Z,99.90
2018-05-11T01:51:39.353Z,99.90
2018-05-11T01:54:06.130Z,99.90
2018-05-11T01:56:32.155Z,99.90
2018-05-11T01:58:58.176Z,99.90
2018-05-11T02:01:24.940Z,99.90
2018-05-11T02:03:50.997Z,99.90
2018-05-11T02:06:17.036Z,99.90
2018-05-11T02:08:43.090Z,99.90
2018-05-11T02:11:09.121Z,99.90
2018-05-11T02:13:35.177Z,99.90
2018-05-11T02:16:01.205Z,99.90
2018-05-11T02:18:27.238Z,99.90
2018-05-11T02:20:53.288Z,99.90
2018-05-11T02:23:19.329Z,99.90
2018-05-11T02:25:45.365Z,99.90
2018-05-11T02:28:11.390Z,99.90
2018-05-11T02:30:37.590Z,99.90
2018-05-11T02:33:03.632Z,99.90
2018-05-11T02:35:29.687Z,99.90
2018-05-11T02:37:55.718Z,99.90
2018-05-11T02:40:21.755Z,99.90
2018-05-11T02:42:47.790Z,99.90
2018-05-11T02:45:13.830Z,99.90
2018-05-11T02:47:46.753Z,99.90
2018-05-11T02:50:12.791Z,99.90
2018-05-11T02:52:39.563Z,99.90
2018-05-11T02:55:05.609Z,99.90
2018-05-11T02:57:32.373Z,99.90
2018-05-11T02:59:58.399Z,99.90
2018-05-11T03:02:25.162Z,99.90
2018-05-11T03:04:51.212Z,99.90
2018-05-11T03:07:17.253Z,99.90
2018-05-11T03:09:43.286Z,99.90
2018-05-11T03:12:09.326Z,99.90
2018-05-11T03:14:35.359Z,99.90
2018-05-11T03:17:01.389Z,99.90
2018-05-11T03:19:27.426Z,99.90
2018-05-11T03:21:53.458Z,99.90
2018-05-11T03:24:19.493Z,99.90
2018-05-11T03:26:45.547Z,99.90
2018-05-11T03:29:11.585Z,99.90
2018-05-11T03:31:37.619Z,99.90
2018-05-11T03:34:03.658Z,99.90
2018-05-11T03:36:29.681Z,99.90
2018-05-11T03:38:55.714Z,99.90
2018-05-11T03:41:21.764Z,99.90
2018-05-11T03:43:47.821Z,99.90
2018-05-11T03:46:13.853Z,99.90
2018-05-11T03:48:39.891Z,99.90
2018-05-11T03:51:05.928Z,99.90
2018-05-11T03:53:31.974Z,99.90
2018-05-11T03:55:58.020Z,99.90
2018-05-11T03:58:24.057Z,99.90
2018-05-11T04:00:50.843Z,99.90
2018-05-11T04:03:30.056Z,99.90
2018-05-11T04:06:02.088Z,99.90
2018-05-11T04:08:43.157Z,99.90
2018-05-11T04:11:09.941Z,99.90
2018-05-11T04:13:35.958Z,99.90
2018-05-11T04:16:01.989Z,99.90
2018-05-11T04:18:28.025Z,99.90
2018-05-11T04:20:54.061Z,99.90
2018-05-11T04:23:20.082Z,99.90
2018-05-11T04:25:46.862Z,99.90
2018-05-11T04:28:12.894Z,99.90
2018-05-11T04:30:38.921Z,99.90
2018-05-11T04:33:04.973Z,99.90
2018-05-11T04:35:31.009Z,99.90
2018-05-11T04:37:57.043Z,99.90
2018-05-11T04:40:23.070Z,99.90
2018-05-11T04:42:49.114Z,99.90
2018-05-11T04:45:15.172Z,99.90
2018-05-11T04:47:41.189Z,99.90
2018-05-11T04:50:07.217Z,99.90
2018-05-11T04:52:33.258Z,99.90
2018-05-11T04:54:59.277Z,99.90
2018-05-11T04:57:26.053Z,99.90
2018-05-11T04:59:52.081Z,99.90
2018-05-11T05:02:18.185Z,99.90
2018-05-11T05:04:44.970Z,99.90
2018-05-11T05:07:10.996Z,99.90
2018-05-11T05:09:37.017Z,99.90
2018-05-11T05:12:03.798Z,99.90
2018-05-11T05:14:29.822Z,99.90
2018-05-11T05:16:56.590Z,99.90
2018-05-11T05:19:22.665Z,99.90
2018-05-11T05:21:48.702Z,99.90
2018-05-11T05:24:14.734Z,99.90
2018-05-11T05:26:40.766Z,99.90
2018-05-11T05:29:06.799Z,99.90
2018-05-11T05:31:32.838Z,99.90
2018-05-11T05:33:58.869Z,99.90
2018-05-11T05:36:24.901Z,99.90
2018-05-11T05:38:50.934Z,99.90
2018-05-11T05:41:16.958Z,99.90
2018-05-11T05:43:42.985Z,99.90
2018-05-11T05:46:09.015Z,99.90
2018-05-11T05:48:35.054Z,99.90
2018-05-11T05:51:01.081Z,99.90
2018-05-11T05:53:27.118Z,99.90
2018-05-11T05:55:53.157Z,99.90
2018-05-11T05:58:19.199Z,99.90
2018-05-11T06:00:45.240Z,99.90
2018-05-11T06:03:11.287Z,99.90
2018-05-11T06:05:37.311Z,99.90
2018-05-11T06:08:03.348Z,99.90
2018-05-11T06:10:29.368Z,99.90
2018-05-11T06:12:55.418Z,99.90
2018-05-11T06:15:21.439Z,99.90
2018-05-11T06:17:47.509Z,99.90
2018-05-11T06:20:13.503Z,99.90
2018-05-11T06:22:39.513Z,99.90
2018-05-11T06:25:05.543Z,99.90
2018-05-11T06:27:32.310Z,99.90
2018-05-11T06:29:59.077Z,99.90
2018-05-11T06:32:25.111Z,99.90
2018-05-11T06:34:51.882Z,99.90
2018-05-11T06:37:17.890Z,99.90
2018-05-11T06:39:44.663Z,99.90
2018-05-11T06:42:10.686Z,99.90
2018-05-11T06:44:37.446Z,99.90
2018-05-11T06:47:03.462Z,99.90
2018-05-11T06:49:30.220Z,99.90
2018-05-11T06:51:56.983Z,99.90
2018-05-11T06:54:23.741Z,99.90
2018-05-11T06:56:49.765Z,99.90
2018-05-11T06:59:16.534Z,99.90
2018-05-11T07:01:42.550Z,99.90
2018-05-11T07:04:09.317Z,99.90
2018-05-11T07:06:35.338Z,99.90
2018-05-11T07:09:02.112Z,99.90
2018-05-11T07:11:28.130Z,99.90
2018-05-11T07:13:54.893Z,99.90
2018-05-11T07:16:20.914Z,99.90
2018-05-11T07:18:47.683Z,99.90
2018-05-11T07:21:13.766Z,99.90
2018-05-11T07:23:39.754Z,99.90
2018-05-11T07:26:05.778Z,99.90
2018-05-11T07:28:31.804Z,99.90
2018-05-11T07:30:58.565Z,99.90
2018-05-11T07:33:25.331Z,99.90
2018-05-11T07:35:51.362Z,99.90
2018-05-11T07:38:18.118Z,98.30
2018-05-11T07:40:44.142Z,98.40
2018-05-11T07:43:10.963Z,95.90
2018-05-11T07:45:36.952Z,95.90
2018-05-11T07:48:02.974Z,99.30
2018-05-11T07:50:29.737Z,99.90
2018-05-11T07:52:55.764Z,99.90
2018-05-11T07:55:21.786Z,99.90
2018-05-11T07:57:48.547Z,99.70
2018-05-11T08:00:14.570Z,99.70
2018-05-11T08:02:41.331Z,99.90
2018-05-11T08:05:08.111Z,98.80
2018-05-11T08:07:34.117Z,98.80
2018-05-11T08:10:00.889Z,99.90
2018-05-11T08:12:26.900Z,99.90
2018-05-11T08:14:53.663Z,97.20
2018-05-11T08:17:20.437Z,99.90
2018-05-11T08:19:46.456Z,99.90
2018-05-11T08:22:12.483Z,99.90
2018-05-11T08:24:39.245Z,99.90
2018-05-11T08:27:06.015Z,99.90
2018-05-11T08:29:32.038Z,99.90
2018-05-11T08:31:58.058Z,99.90
2018-05-11T08:34:24.817Z,99.90
2018-05-11T08:36:51.573Z,99.90
2018-05-11T08:39:18.322Z,99.90
2018-05-11T08:41:45.086Z,99.90
2018-05-11T08:44:11.101Z,99.90
2018-05-11T08:46:37.866Z,96.40
2018-05-11T08:49:04.622Z,93.80
2018-05-11T08:51:30.647Z,93.80
2018-05-11T08:53:57.393Z,95.60
2018-05-11T08:56:24.150Z,97.90
2018-05-11T08:58:50.905Z,99.90
2018-05-11T09:01:17.663Z,99.90
2018-05-11T09:03:44.457Z,99.60
2018-05-11T09:06:10.487Z,99.60
2018-05-11T09:08:36.659Z,97.60
2018-05-11T09:11:02.563Z,98.50
2018-05-11T09:13:28.610Z,99.90
2018-05-11T09:15:54.646Z,99.90
2018-05-11T09:18:20.691Z,94.00
2018-05-11T09:20:46.732Z,88.20
2018-05-11T09:23:12.751Z,91.70
2018-05-11T09:25:38.766Z,93.30
2018-05-11T09:28:04.794Z,91.40
2018-05-11T09:30:30.823Z,83.30
2018-05-11T09:32:56.849Z,77.80
2018-05-11T09:35:22.884Z,72.20
2018-05-11T09:37:48.906Z,71.40
2018-05-11T09:40:15.669Z,85.40
2018-05-11T09:42:42.429Z,88.60
2018-05-11T09:45:08.509Z,88.50
2018-05-11T09:47:34.564Z,91.20
2018-05-11T09:50:00.586Z,92.00
2018-05-11T09:52:26.633Z,91.90
2018-05-11T09:54:52.657Z,93.90
2018-05-11T09:57:18.682Z,94.50
2018-05-11T09:59:44.730Z,95.50
2018-05-11T10:02:10.752Z,95.10
2018-05-11T10:04:36.794Z,97.70
2018-05-11T10:07:02.829Z,99.00
2018-05-11T10:09:28.865Z,98.20
2018-05-11T10:11:54.893Z,97.40
2018-05-11T10:14:20.931Z,95.40
2018-05-11T10:16:46.960Z,96.80
2018-05-11T10:19:12.994Z,99.00
2018-05-11T10:21:39.021Z,98.20
2018-05-11T10:24:05.789Z,94.90
2018-05-11T10:26:31.810Z,94.90
2018-05-11T10:28:57.900Z,96.00
2018-05-11T10:31:23.913Z,95.80
2018-05-11T10:33:49.958Z,94.80
2018-05-11T10:36:15.990Z,94.70
2018-05-11T10:38:42.023Z,94.90
2018-05-11T10:41:08.045Z,94.50
2018-05-11T10:43:34.211Z,91.40
2018-05-11T10:46:00.246Z,85.10
2018-05-11T10:48:26.378Z,78.50
2018-05-11T10:50:52.361Z,74.00
2018-05-11T10:53:18.417Z,70.60
2018-05-11T10:55:44.448Z,67.00
2018-05-11T10:58:10.472Z,64.30
2018-05-11T11:00:36.502Z,63.90
2018-05-11T11:03:02.523Z,64.80
2018-05-11T11:05:29.294Z,69.20
2018-05-11T11:07:55.305Z,68.90
2018-05-11T11:10:22.074Z,77.90
2018-05-11T11:12:48.094Z,77.50
2018-05-11T11:15:14.851Z,82.00
2018-05-11T11:17:40.872Z,82.00
2018-05-11T11:20:07.633Z,85.40
2018-05-11T11:22:34.386Z,83.40
2018-05-11T11:25:01.142Z,83.50
2018-05-11T11:27:27.154Z,83.40
2018-05-11T11:29:53.198Z,85.60
2018-05-11T11:32:19.951Z,87.90
2018-05-11T11:34:46.733Z,88.60
2018-05-11T11:37:13.454Z,87.70
2018-05-11T11:39:40.225Z,89.40
2018-05-11T11:42:06.984Z,89.30
2018-05-11T11:44:32.990Z,89.20
2018-05-11T11:46:59.033Z,89.80
2018-05-11T11:49:25.866Z,91.50
2018-05-11T11:51:51.903Z,91.40
2018-05-11T11:54:17.916Z,91.30
2018-05-11T11:56:43.946Z,88.60
2018-05-11T11:59:09.958Z,86.20
2018-05-11T12:01:36.038Z,88.20
2018-05-11T12:04:02.014Z,90.50
2018-05-11T12:06:28.770Z,79.10
2018-05-11T12:08:54.866Z,79.00
2018-05-11T12:11:21.546Z,74.00
2018-05-11T12:13:48.293Z,76.50
2018-05-11T12:16:15.072Z,74.10
2018-05-11T12:18:41.090Z,73.70
2018-05-11T12:21:07.854Z,71.80
2018-05-11T12:23:33.871Z,71.80
2018-05-11T12:26:00.668Z,72.10
2018-05-11T12:28:26.681Z,72.00
2018-05-11T12:30:52.701Z,71.90
2018-05-11T12:33:19.461Z,66.30
2018-05-11T12:35:46.230Z,66.20
2018-05-11T12:38:12.252Z,66.20
2018-05-11T12:40:38.271Z,66.40
2018-05-11T12:43:05.032Z,70.20
2018-05-11T12:45:31.796Z,72.80
2018-05-11T12:47:57.893Z,72.70
2018-05-11T12:50:23.957Z,80.10
2018-05-11T12:52:50.760Z,84.10
2018-05-11T12:55:16.779Z,84.30
2018-05-11T12:57:42.807Z,87.60
2018-05-11T13:00:08.886Z,88.30
2018-05-11T13:02:34.928Z,87.30
2018-05-11T13:05:00.965Z,86.80
2018-05-11T13:07:27.001Z,82.30
2018-05-11T13:09:54.394Z,78.90
2018-05-11T13:12:21.161Z,78.40
2018-05-11T13:14:47.979Z,81.90
2018-05-11T13:17:14.757Z,80.50
2018-05-11T13:19:41.521Z,76.80
2018-05-11T13:22:08.287Z,70.90
2018-05-11T13:24:34.357Z,70.80
2018-05-11T13:27:00.537Z,72.10
2018-05-11T13:29:26.713Z,75.20
2018-05-11T13:31:53.210Z,76.80
2018-05-11T13:34:20.422Z,80.50
2018-05-11T13:36:46.434Z,80.60
2018-05-11T13:39:12.450Z,82.20
2018-05-11T13:41:39.291Z,85.90
2018-05-11T13:44:06.092Z,87.00
2018-05-11T13:46:32.178Z,87.00
2018-05-11T13:48:58.946Z,82.30
2018-05-11T13:51:25.774Z,84.90
2018-05-11T13:53:51.821Z,84.20
2018-05-11T13:56:18.669Z,77.80
2018-05-11T13:58:44.612Z,77.80
2018-05-11T14:01:11.443Z,72.90
2018-05-11T14:03:38.270Z,74.80
2018-05-11T14:06:04.385Z,74.80
2018-05-11T14:08:30.418Z,71.50
2018-05-11T14:10:56.611Z,71.20
2018-05-11T14:13:22.641Z,73.90
2018-05-11T14:15:48.670Z,74.20
2018-05-11T14:18:14.893Z,78.10
2018-05-11T14:20:40.909Z,81.20
2018-05-11T14:23:06.933Z,81.10
2018-05-11T14:25:33.168Z,85.30
2018-05-11T14:27:59.957Z,85.30
2018-05-11T14:30:25.985Z,85.10
2018-05-11T14:32:52.005Z,81.90
2018-05-11T14:35:18.098Z,81.40
2018-05-11T14:37:44.134Z,81.00
2018-05-11T14:40:10.361Z,81.40
2018-05-11T14:42:36.397Z,81.40
2018-05-11T14:45:02.433Z,85.70
2018-05-11T14:47:28.450Z,80.20
2018-05-11T14:49:54.477Z,74.90
2018-05-11T14:52:20.494Z,81.80
2018-05-11T14:54:46.537Z,78.10
2018-05-11T14:57:12.574Z,79.80
2018-05-11T14:59:38.590Z,82.40
2018-05-11T15:02:05.347Z,89.80
2018-05-11T15:04:31.370Z,89.70
2018-05-11T15:06:58.307Z,88.60
2018-05-11T15:09:25.825Z,85.60
2018-05-11T15:11:51.846Z,85.20
2018-05-11T15:14:17.865Z,82.90
2018-05-11T15:16:44.619Z,75.00
2018-05-11T15:19:11.382Z,77.80
2018-05-11T15:21:38.145Z,78.10
2018-05-11T15:24:04.173Z,78.20
2018-05-11T15:26:31.096Z,84.00
2018-05-11T15:28:57.130Z,84.00
2018-05-11T15:31:23.151Z,87.20
2018-05-11T15:33:49.170Z,89.70
2018-05-11T15:36:15.186Z,90.20
2018-05-11T15:38:41.226Z,90.00
2018-05-11T15:41:07.245Z,91.50
2018-05-11T15:43:33.263Z,92.30
2018-05-11T15:46:00.052Z,94.20
2018-05-11T15:48:26.055Z,94.20
2018-05-11T15:50:52.830Z,89.80
2018-05-11T15:53:18.851Z,89.80
2018-05-11T15:55:45.609Z,86.20
2018-05-11T15:58:11.625Z,86.20
2018-05-11T16:00:38.387Z,88.30
2018-05-11T16:03:05.170Z,89.00
2018-05-11T16:05:31.213Z,89.00
2018-05-11T16:07:57.237Z,87.30
2018-05-11T16:10:23.251Z,88.30
2018-05-11T16:12:50.119Z,88.90
2018-05-11T16:15:16.050Z,88.90
2018-05-11T16:17:42.052Z,84.90
2018-05-11T16:20:08.074Z,84.80
2018-05-11T16:22:34.081Z,87.30
2018-05-11T16:25:00.098Z,86.20
2018-05-11T16:27:26.124Z,84.80
2018-05-11T16:29:52.147Z,84.40
2018-05-11T16:32:18.921Z,82.30
2018-05-11T16:34:44.957Z,82.30
2018-05-11T16:37:10.994Z,82.60
2018-05-11T16:39:37.019Z,82.40
2018-05-11T16:42:03.778Z,86.40
2018-05-11T16:44:29.793Z,86.40
2018-05-11T16:46:56.551Z,83.70
2018-05-11T16:49:23.309Z,85.90
2018-05-11T16:51:49.330Z,85.80
2018-05-11T16:54:16.094Z,89.80
2018-05-11T16:56:42.113Z,89.70
2018-05-11T16:59:08.871Z,91.00
2018-05-11T17:01:35.625Z,93.10
2018-05-11T17:04:02.409Z,95.20
2018-05-11T17:06:28.470Z,95.20
2018-05-11T17:08:54.525Z,96.50
2018-05-11T17:11:20.558Z,99.20
2018-05-11T17:13:46.590Z,99.90
2018-05-11T17:16:12.619Z,99.90
2018-05-11T17:18:38.642Z,99.90
2018-05-11T17:21:04.694Z,99.90
2018-05-11T17:23:30.719Z,99.90
2018-05-11T17:25:56.804Z,99.90
2018-05-11T17:28:23.669Z,99.90
2018-05-11T17:30:49.690Z,99.90
2018-05-11T17:33:16.470Z,99.90
2018-05-11T17:35:42.569Z,99.90
2018-05-11T17:38:08.674Z,99.90
2018-05-11T17:40:34.722Z,99.90
2018-05-11T17:43:01.733Z,99.90
2018-05-11T17:45:27.797Z,99.90
2018-05-11T17:47:53.926Z,99.90
2018-05-11T17:50:20.693Z,99.90
2018-05-11T17:52:46.875Z,99.90
2018-05-11T17:55:13.642Z,99.90
2018-05-11T17:57:40.409Z,99.90
2018-05-11T18:00:06.553Z,99.90
2018-05-11T18:02:32.593Z,99.90
2018-05-11T18:04:58.898Z,99.90
2018-05-11T18:07:25.666Z,99.90
2018-05-11T18:09:51.683Z,99.90
2018-05-11T18:12:17.717Z,99.90
2018-05-11T18:14:43.714Z,99.90
2018-05-11T18:17:09.722Z,99.90
2018-05-11T18:19:35.742Z,99.90
2018-05-11T18:22:01.896Z,99.90
2018-05-11T18:24:27.918Z,99.90
2018-05-11T18:26:53.935Z,99.90
2018-05-11T18:29:20.693Z,99.90
2018-05-11T18:31:47.485Z,99.90
2018-05-11T18:34:13.553Z,99.90
2018-05-11T18:36:39.574Z,99.90
2018-05-11T18:39:05.607Z,99.90
2018-05-11T18:41:31.645Z,99.90
2018-05-11T18:43:57.790Z,99.90
2018-05-11T18:46:23.816Z,99.90
2018-05-11T18:48:49.914Z,99.90
2018-05-11T18:51:15.936Z,99.90
2018-05-11T18:53:42.441Z,99.90
2018-05-11T18:56:08.166Z,99.90
2018-05-11T18:58:34.210Z,99.90
2018-05-11T19:01:00.229Z,99.90
2018-05-11T19:03:26.283Z,99.90
2018-05-11T19:05:52.334Z,99.90
2018-05-11T19:08:18.353Z,99.90
2018-05-11T19:10:44.391Z,99.90
2018-05-11T19:13:10.427Z,99.90
2018-05-11T19:15:36.469Z,99.90
2018-05-11T19:18:02.856Z,99.90
2018-05-11T19:20:28.860Z,99.90
2018-05-11T19:22:55.635Z,99.90
2018-05-11T19:25:22.413Z,99.90
2018-05-11T19:27:48.447Z,99.90
2018-05-11T19:30:14.478Z,99.90
2018-05-11T19:32:40.557Z,99.90
2018-05-11T19:35:06.642Z,99.90
2018-05-11T19:37:32.668Z,99.90
2018-05-11T19:39:59.437Z,99.90
2018-05-11T19:42:25.538Z,99.90
2018-05-11T19:44:51.609Z,99.90
2018-05-11T19:47:17.629Z,99.90
2018-05-11T19:49:44.395Z,99.90
2018-05-11T19:52:10.441Z,99.90
2018-05-11T19:54:36.488Z,99.90
2018-05-11T19:57:02.557Z,99.90
2018-05-11T19:59:28.562Z,99.90
2018-05-11T20:01:54.594Z,99.90
2018-05-11T20:04:20.625Z,99.90
2018-05-11T20:06:46.682Z,99.90
2018-05-11T20:09:12.701Z,99.90
2018-05-11T20:11:38.830Z,99.90
2018-05-11T20:14:04.861Z,99.90
2018-05-11T20:16:30.887Z,99.90
2018-05-11T20:18:57.704Z,99.90
2018-05-11T20:21:25.238Z,99.90
2018-05-11T20:23:51.273Z,99.90
2018-05-11T20:26:17.366Z,99.90
2018-05-11T20:28:43.399Z,99.90
2018-05-11T20:31:09.660Z,99.90
2018-05-11T20:33:36.451Z,99.90
2018-05-11T20:36:02.514Z,99.90
2018-05-11T20:38:28.534Z,99.90
2018-05-11T20:40:54.575Z,99.90
2018-05-11T20:43:20.708Z,99.90
2018-05-11T20:45:46.747Z,99.90
2018-05-11T20:48:12.765Z,99.90
2018-05-11T20:50:38.797Z,99.90
2018-05-11T20:53:04.874Z,99.90
2018-05-11T20:55:30.910Z,99.90
2018-05-11T20:57:56.950Z,99.90
2018-05-11T21:00:23.027Z,99.90
2018-05-11T21:02:49.794Z,99.90
2018-05-11T21:05:15.831Z,99.90
2018-05-11T21:07:41.867Z,99.90
2018-05-11T21:10:07.948Z,99.90
2018-05-11T21:12:33.988Z,99.90
2018-05-11T21:15:00.038Z,99.90
2018-05-11T21:17:26.840Z,99.90
2018-05-11T21:19:52.880Z,99.90
2018-05-11T21:22:18.917Z,99.90
2018-05-11T21:24:44.953Z,99.90
2018-05-11T21:27:11.064Z,99.90
2018-05-11T21:29:37.038Z,99.90
2018-05-11T21:32:03.121Z,99.90
2018-05-11T21:34:36.771Z,99.90
2018-05-11T21:37:03.182Z,99.90
2018-05-11T21:39:30.060Z,99.90
2018-05-11T21:41:56.190Z,99.90
2018-05-11T21:44:22.219Z,99.90
2018-05-11T21:46:48.998Z,99.90
2018-05-11T21:49:15.034Z,99.90
2018-05-11T21:51:41.104Z,99.90
2018-05-11T21:54:07.136Z,99.90
2018-05-11T21:56:33.166Z,99.90
2018-05-11T21:58:59.187Z,99.90
2018-05-11T22:01:25.216Z,99.90
2018-05-11T22:03:51.243Z,99.90
2018-05-11T22:06:17.267Z,99.90
2018-05-11T22:08:44.026Z,99.90
2018-05-11T22:11:10.345Z,99.90
2018-05-11T22:13:37.125Z,99.90
2018-05-11T22:16:03.152Z,99.90
2018-05-11T22:18:30.001Z,99.90
2018-05-11T22:20:56.757Z,99.90
2018-05-11T22:23:23.525Z,99.90
2018-05-11T22:25:49.538Z,99.90
2018-05-11T22:28:16.377Z,99.90
2018-05-11T22:30:42.447Z,99.90
2018-05-11T22:33:08.466Z,99.90
2018-05-11T22:35:35.224Z,99.90
2018-05-11T22:38:02.154Z,99.90
2018-05-11T22:40:28.175Z,99.90
2018-05-11T22:42:54.190Z,99.90
2018-05-11T22:45:20.198Z,99.90
2018-05-11T22:47:46.278Z,99.90
2018-05-11T22:50:12.306Z,99.90
2018-05-11T22:52:38.331Z,99.90
2018-05-11T22:55:04.376Z,99.90
2018-05-11T22:57:30.390Z,99.90
2018-05-11T22:59:56.409Z,99.90
2018-05-11T23:02:23.191Z,99.90
2018-05-11T23:04:49.235Z,99.90
2018-05-11T23:07:15.270Z,99.90
2018-05-11T23:09:41.312Z,99.90
2018-05-11T23:12:07.333Z,99.90
2018-05-11T23:14:33.430Z,99.90
2018-05-11T23:16:59.445Z,99.90
2018-05-11T23:19:25.486Z,99.90
2018-05-11T23:21:51.511Z,99.90
2018-05-11T23:24:17.537Z,99.90
2018-05-11T23:26:43.591Z,99.90
2018-05-11T23:29:09.629Z,99.90
2018-05-11T23:31:35.659Z,99.90
2018-05-11T23:34:01.838Z,99.90
2018-05-11T23:36:28.666Z,99.90
2018-05-11T23:38:54.693Z,99.90
2018-05-11T23:41:20.714Z,99.90
2018-05-11T23:43:46.744Z,99.90
2018-05-11T23:46:12.862Z,99.90
2018-05-11T23:48:38.922Z,99.90
2018-05-11T23:51:04.954Z,99.90
2018-05-11T23:53:31.045Z,99.90
2018-05-11T23:55:57.886Z,99.90
2018-05-11T23:58:23.835Z,99.90
